createdAt,value
2022-11-07T00:01:55.793Z,10.40
2022-11-07T00:04:22.834Z,10.77
2022-11-07T00:06:49.881Z,10.32
2022-11-07T00:09:16.963Z,10.15
2022-11-07T00:11:43.996Z,10.68
2022-11-07T00:14:15.779Z,11.88
2022-11-07T00:16:44.337Z,11.07
2022-11-07T00:19:12.847Z,10.23
2022-11-07T00:21:40.501Z,11.38
2022-11-07T00:24:08.481Z,11.88
2022-11-07T00:26:37.007Z,12.00
2022-11-07T00:29:05.172Z,12.60
2022-11-07T00:31:32.577Z,11.52
2022-11-07T00:33:59.759Z,11.77
2022-11-07T00:36:28.546Z,11.50
2022-11-07T00:38:55.935Z,11.45
2022-11-07T00:41:23.869Z,12.45
2022-11-07T00:43:51.208Z,11.82
2022-11-07T00:46:19.716Z,11.25
2022-11-07T00:48:47.530Z,11.77
2022-11-07T00:51:20.759Z,11.60
2022-11-07T00:56:18.133Z,10.75
2022-11-07T00:58:45.405Z,11.57
2022-11-07T01:01:15.531Z,10.85
2022-11-07T01:04:01.862Z,11.18
2022-11-07T01:06:31.201Z,12.10
2022-11-07T01:08:58.995Z,10.90
2022-11-07T01:11:29.840Z,12.02
2022-11-07T01:13:59.011Z,12.52
2022-11-07T01:16:27.184Z,11.85
2022-11-07T01:18:55.077Z,13.38
2022-11-07T01:21:22.487Z,11.35
2022-11-07T01:23:49.724Z,12.32
2022-11-07T01:26:17.710Z,11.73
2022-11-07T01:28:45.009Z,11.98
2022-11-07T01:31:14.292Z,12.38
2022-11-07T01:33:41.952Z,11.73
2022-11-07T01:36:16.188Z,12.02
2022-11-07T01:38:46.495Z,11.18
2022-11-07T01:41:23.403Z,11.38
2022-11-07T01:44:08.442Z,11.85
2022-11-07T01:46:36.624Z,11.77
2022-11-07T01:49:38.175Z,11.65
2022-11-07T01:52:27.620Z,12.10
2022-11-07T01:55:05.207Z,10.93
2022-11-07T01:57:39.430Z,11.43
2022-11-07T02:00:11.317Z,11.25
2022-11-07T02:02:39.585Z,11.52
2022-11-07T02:05:09.438Z,11.52
2022-11-07T02:07:38.409Z,12.80
2022-11-07T02:10:06.637Z,12.48
2022-11-07T02:12:34.181Z,12.35
2022-11-07T02:15:21.158Z,12.27
2022-11-07T02:17:48.974Z,11.75
2022-11-07T02:20:16.211Z,11.25
2022-11-07T02:22:50.755Z,12.05
2022-11-07T02:25:20.019Z,11.88
2022-11-07T02:27:52.318Z,11.23
2022-11-07T02:30:22.711Z,10.40
2022-11-07T02:32:50.303Z,11.10
2022-11-07T02:35:35.354Z,11.68
2022-11-07T02:38:06.546Z,11.18
2022-11-07T02:40:33.922Z,11.57
2022-11-07T02:43:01.482Z,11.57
2022-11-07T02:45:33.046Z,11.45
2022-11-07T02:48:00.336Z,12.43
2022-11-07T02:50:27.959Z,10.93
2022-11-07T02:52:55.085Z,10.75
2022-11-07T02:55:22.348Z,11.65
2022-11-07T02:57:49.574Z,10.80
2022-11-07T03:00:17.125Z,11.63
2022-11-07T03:02:47.338Z,10.65
2022-11-07T03:05:17.312Z,11.57
2022-11-07T03:07:45.901Z,10.60
2022-11-07T03:10:15.055Z,10.75
2022-11-07T03:12:42.586Z,10.90
2022-11-07T03:15:11.876Z,10.68
2022-11-07T03:17:39.292Z,10.77
2022-11-07T03:20:08.207Z,11.10
2022-11-07T03:22:35.210Z,11.10
2022-11-07T03:25:04.900Z,11.77
2022-11-07T03:27:33.416Z,10.90
2022-11-07T03:30:00.705Z,9.85
2022-11-07T03:32:27.968Z,9.57
2022-11-07T03:34:55.023Z,10.50
2022-11-07T03:37:23.314Z,10.90
2022-11-07T03:39:50.595Z,9.75
2022-11-07T03:42:17.929Z,10.40
2022-11-07T03:44:47.096Z,10.40
2022-11-07T03:47:15.256Z,9.90
2022-11-07T03:49:42.454Z,9.25
2022-11-07T03:52:12.303Z,9.68
2022-11-07T03:54:39.586Z,9.38
2022-11-07T03:57:06.656Z,9.07
2022-11-07T03:59:36.986Z,9.40
2022-11-07T04:02:04.153Z,8.82
2022-11-07T04:04:31.263Z,9.00
2022-11-07T04:07:05.696Z,10.20
2022-11-07T04:09:32.762Z,9.00
2022-11-07T04:12:18.539Z,9.18
2022-11-07T04:15:10.801Z,8.80
2022-11-07T04:17:40.582Z,8.23
2022-11-07T04:20:08.454Z,8.63
2022-11-07T04:22:35.780Z,8.73
2022-11-07T04:25:03.516Z,7.57
2022-11-07T04:27:42.884Z,8.18
2022-11-07T04:30:30.231Z,7.30
2022-11-07T04:32:59.547Z,8.18
2022-11-07T04:35:29.083Z,8.38
2022-11-07T04:37:56.212Z,8.38
2022-11-07T04:40:23.675Z,8.27
2022-11-07T04:42:51.409Z,9.10
2022-11-07T04:45:18.566Z,7.82
2022-11-07T04:47:45.907Z,7.40
2022-11-07T04:50:16.385Z,7.60
2022-11-07T04:52:43.768Z,8.95
2022-11-07T04:55:18.465Z,7.85
2022-11-07T04:57:45.782Z,8.45
2022-11-07T05:00:13.492Z,7.65
2022-11-07T05:02:40.673Z,8.35
2022-11-07T05:05:08.186Z,9.10
2022-11-07T05:07:35.297Z,8.65
2022-11-07T05:10:02.665Z,9.13
2022-11-07T05:12:30.113Z,8.50
2022-11-07T05:14:57.263Z,8.13
2022-11-07T05:17:27.945Z,8.45
2022-11-07T05:19:55.294Z,8.52
2022-11-07T05:22:40.817Z,8.02
2022-11-07T05:25:08.534Z,8.30
2022-11-07T05:27:35.552Z,9.05
2022-11-07T05:30:02.617Z,7.88
2022-11-07T05:32:30.447Z,8.35
2022-11-07T05:34:57.611Z,9.10
2022-11-07T05:37:24.661Z,8.02
2022-11-07T05:39:55.014Z,8.20
2022-11-07T05:42:22.382Z,7.60
2022-11-07T05:44:49.694Z,7.85
2022-11-07T05:47:16.762Z,7.93
2022-11-07T05:49:43.782Z,8.18
2022-11-07T05:52:10.841Z,8.65
2022-11-07T05:54:37.866Z,8.32
2022-11-07T05:57:05.049Z,8.52
2022-11-07T05:59:32.098Z,8.77
2022-11-07T06:01:59.761Z,9.30
2022-11-07T06:04:29.462Z,8.45
2022-11-07T06:06:56.457Z,7.97
2022-11-07T06:09:23.575Z,8.63
2022-11-07T06:11:51.679Z,7.60
2022-11-07T06:14:18.679Z,8.75
2022-11-07T06:16:45.723Z,7.85
2022-11-07T06:19:12.772Z,8.18
2022-11-07T06:21:40.042Z,8.25
2022-11-07T06:24:12.413Z,8.38
2022-11-07T06:26:42.106Z,7.70
2022-11-07T06:29:09.098Z,8.18
2022-11-07T06:31:36.245Z,8.23
2022-11-07T06:34:03.344Z,7.57
2022-11-07T06:36:30.614Z,7.82
2022-11-07T06:38:57.793Z,8.45
2022-11-07T06:41:24.829Z,7.32
2022-11-07T06:43:53.975Z,7.63
2022-11-07T06:46:22.858Z,8.20
2022-11-07T06:48:49.924Z,7.72
2022-11-07T06:51:17.123Z,7.78
2022-11-07T06:53:44.146Z,7.85
2022-11-07T06:56:15.092Z,7.70
2022-11-07T06:58:42.328Z,8.02
2022-11-07T07:01:13.709Z,7.72
2022-11-07T07:03:42.172Z,7.97
2022-11-07T07:06:14.284Z,8.25
2022-11-07T07:08:41.891Z,8.27
2022-11-07T07:11:14.055Z,8.38
2022-11-07T07:13:41.723Z,7.70
2022-11-07T07:16:09.209Z,8.27
2022-11-07T07:18:36.593Z,8.63
2022-11-07T07:21:06.790Z,8.98
2022-11-07T07:23:38.420Z,8.25
2022-11-07T07:26:08.448Z,7.93
2022-11-07T07:28:37.662Z,8.20
2022-11-07T07:31:22.335Z,8.20
2022-11-07T07:33:49.458Z,8.65
2022-11-07T07:36:21.171Z,7.97
2022-11-07T07:38:49.252Z,9.30
2022-11-07T07:41:17.265Z,8.75
2022-11-07T07:43:46.415Z,8.43
2022-11-07T07:46:21.518Z,8.30
2022-11-07T07:48:48.678Z,8.15
2022-11-07T07:51:15.786Z,8.20
2022-11-07T07:53:45.241Z,8.40
2022-11-07T07:56:12.341Z,8.30
2022-11-07T07:58:39.385Z,8.48
2022-11-07T08:01:10.543Z,8.27
2022-11-07T08:03:59.779Z,8.40
2022-11-07T08:06:25.437Z,8.57
2022-11-07T08:08:52.847Z,7.80
2022-11-07T08:11:20.188Z,7.22
2022-11-07T08:13:47.987Z,7.90
2022-11-07T08:16:15.150Z,7.35
2022-11-07T08:18:42.245Z,8.63
2022-11-07T08:21:09.610Z,7.13
2022-11-07T08:23:36.815Z,7.97
2022-11-07T08:26:04.874Z,8.23
2022-11-07T08:28:34.885Z,8.75
2022-11-07T08:31:04.995Z,8.38
2022-11-07T08:33:32.374Z,9.02
2022-11-07T08:36:01.397Z,9.40
2022-11-07T08:38:30.750Z,9.70
2022-11-07T08:40:58.134Z,8.95
2022-11-07T08:43:25.488Z,8.68
2022-11-07T08:45:55.111Z,8.77
2022-11-07T08:48:23.299Z,9.05
2022-11-07T08:50:55.289Z,8.05
2022-11-07T08:53:23.050Z,7.60
2022-11-07T08:55:50.134Z,8.23
2022-11-07T08:58:19.361Z,8.55
2022-11-07T09:00:46.798Z,8.18
2022-11-07T09:06:01.497Z,8.25
2022-11-07T09:08:29.071Z,8.40
2022-11-07T09:10:58.006Z,8.15
2022-11-07T09:13:25.071Z,8.07
2022-11-07T09:15:57.169Z,7.63
2022-11-07T09:18:24.247Z,7.40
2022-11-07T09:20:51.338Z,7.72
2022-11-07T09:23:18.871Z,6.65
2022-11-07T09:25:47.307Z,7.57
2022-11-07T09:28:15.529Z,8.13
2022-11-07T09:30:44.915Z,7.68
2022-11-07T09:33:12.260Z,7.13
2022-11-07T09:35:40.591Z,8.10
2022-11-07T09:38:07.700Z,8.63
2022-11-07T09:40:56.467Z,8.55
2022-11-07T09:43:59.406Z,8.13
2022-11-07T09:46:47.025Z,8.40
2022-11-07T09:49:18.022Z,7.47
2022-11-07T09:51:54.529Z,8.52
2022-11-07T09:54:27.983Z,8.52
2022-11-07T09:56:58.135Z,8.23
2022-11-07T09:59:32.275Z,8.20
2022-11-07T10:01:59.468Z,8.02
2022-11-07T10:04:27.241Z,8.30
2022-11-07T10:07:17.711Z,7.50
2022-11-07T10:09:56.033Z,8.55
2022-11-07T10:12:56.088Z,8.73
2022-11-07T10:15:41.948Z,9.40
2022-11-07T10:18:46.538Z,7.78
2022-11-07T10:21:40.387Z,8.40
2022-11-07T10:24:19.240Z,8.55
2022-11-07T10:26:46.407Z,8.45
2022-11-07T10:29:26.625Z,7.45
2022-11-07T10:31:59.334Z,8.52
2022-11-07T10:39:12.287Z,9.18
2022-11-07T10:42:59.097Z,8.90
2022-11-07T10:45:28.443Z,9.05
2022-11-07T10:48:02.584Z,9.02
2022-11-07T10:50:30.829Z,9.40
2022-11-07T10:53:05.918Z,8.60
2022-11-07T10:55:44.406Z,9.98
2022-11-07T10:58:23.020Z,8.60
2022-11-07T11:00:57.970Z,9.80
2022-11-07T11:03:43.837Z,9.23
2022-11-07T11:06:24.738Z,9.32
2022-11-07T11:08:53.283Z,9.43
2022-11-07T11:11:32.274Z,8.73
2022-11-07T11:14:09.359Z,9.45
2022-11-07T11:16:39.124Z,9.73
2022-11-07T11:19:16.651Z,9.93
2022-11-07T11:21:45.900Z,9.80
2022-11-07T11:24:18.219Z,10.40
2022-11-07T11:26:47.858Z,9.77
2022-11-07T11:29:33.202Z,10.27
2022-11-07T11:32:06.187Z,9.30
2022-11-07T11:34:57.842Z,10.18
2022-11-07T11:37:27.545Z,10.40
2022-11-07T11:40:02.510Z,9.20
2022-11-07T11:42:46.526Z,9.32
2022-11-07T11:45:18.575Z,9.98
2022-11-07T11:47:56.201Z,9.23
2022-11-07T11:50:32.103Z,8.77
2022-11-07T11:53:00.036Z,9.48
2022-11-07T11:55:38.331Z,10.48
2022-11-07T11:58:28.247Z,10.43
2022-11-07T12:01:32.968Z,11.18
2022-11-07T12:04:30.027Z,12.23
2022-11-07T12:07:18.282Z,11.40
2022-11-07T12:09:54.786Z,12.55
2022-11-07T12:12:33.246Z,11.77
2022-11-07T12:15:31.271Z,11.25
2022-11-07T12:18:25.092Z,11.63
2022-11-07T12:21:18.266Z,11.25
2022-11-07T12:24:21.616Z,11.50
2022-11-07T12:27:10.735Z,10.77
2022-11-07T12:29:59.636Z,10.68
2022-11-07T12:33:04.333Z,11.60
2022-11-07T12:35:48.683Z,11.32
2022-11-07T12:38:43.205Z,10.52
2022-11-07T12:41:13.603Z,10.50
2022-11-07T12:43:43.716Z,11.20
2022-11-07T12:46:38.262Z,11.00
2022-11-07T12:49:26.126Z,11.45
2022-11-07T12:52:05.070Z,11.07
2022-11-07T12:57:33.190Z,12.35
2022-11-07T13:00:17.494Z,11.60
2022-11-07T13:02:56.729Z,10.75
2022-11-07T13:05:36.109Z,11.75
2022-11-07T13:08:38.832Z,12.65
2022-11-07T13:11:06.102Z,11.68
2022-11-07T13:13:52.298Z,11.27
2022-11-07T13:16:31.735Z,11.27
2022-11-07T13:19:31.131Z,10.70
2022-11-07T13:22:03.395Z,11.25
2022-11-07T13:24:32.021Z,10.60
2022-11-07T13:27:00.185Z,10.85
2022-11-07T13:29:40.256Z,10.77
2022-11-07T13:32:10.614Z,10.18
2022-11-07T13:34:53.271Z,10.45
2022-11-07T13:37:23.990Z,10.68
2022-11-07T13:39:55.166Z,10.40
2022-11-07T13:42:26.177Z,11.23
2022-11-07T13:44:57.371Z,11.60
2022-11-07T13:47:33.334Z,11.40
2022-11-07T13:50:10.232Z,10.50
2022-11-07T13:52:55.214Z,10.48
2022-11-07T13:55:29.515Z,10.93
2022-11-07T13:58:10.100Z,11.55
2022-11-07T14:00:37.690Z,11.00
2022-11-07T14:03:05.965Z,11.88
2022-11-07T14:05:37.458Z,10.85
2022-11-07T14:08:08.699Z,10.45
2022-11-07T14:10:59.618Z,10.55
2022-11-07T14:13:41.607Z,11.35
2022-11-07T14:16:24.198Z,11.38
2022-11-07T14:18:58.418Z,10.77
2022-11-07T14:21:31.619Z,11.05
2022-11-07T14:24:01.594Z,11.18
2022-11-07T14:26:33.711Z,10.93
2022-11-07T14:29:02.280Z,11.38
2022-11-07T14:31:39.041Z,10.70
2022-11-07T14:34:20.518Z,11.10
2022-11-07T14:36:57.664Z,11.18
2022-11-07T14:39:41.143Z,10.93
2022-11-07T14:42:11.932Z,10.77
2022-11-07T14:44:54.371Z,11.25
2022-11-07T14:47:28.181Z,11.65
2022-11-07T14:50:00.272Z,10.40
2022-11-07T14:52:48.983Z,11.35
2022-11-07T14:55:45.510Z,11.23
2022-11-07T14:58:13.651Z,11.98
2022-11-07T15:01:29.276Z,11.95
2022-11-07T15:04:26.168Z,12.27
2022-11-07T15:06:53.479Z,11.15
2022-11-07T15:09:32.368Z,12.20
2022-11-07T15:12:01.358Z,11.35
2022-11-07T15:14:36.709Z,11.52
2022-11-07T15:17:07.648Z,11.68
2022-11-07T15:19:43.152Z,10.98
2022-11-07T15:22:32.463Z,11.15
2022-11-07T15:24:59.760Z,12.18
2022-11-07T15:27:37.581Z,11.98
2022-11-07T15:30:09.025Z,12.23
2022-11-07T15:32:42.992Z,11.43
2022-11-07T15:38:25.196Z,12.00
2022-11-07T15:40:55.248Z,11.90
2022-11-07T15:43:22.699Z,12.77
2022-11-07T15:45:53.839Z,13.27
2022-11-07T15:48:30.864Z,12.15
2022-11-07T15:50:58.065Z,11.10
2022-11-07T15:53:29.646Z,12.45
2022-11-07T15:55:59.816Z,11.68
2022-11-07T15:58:30.064Z,12.52
2022-11-07T16:00:58.789Z,13.23
2022-11-07T16:03:27.673Z,10.98
2022-11-07T16:05:58.213Z,12.75
2022-11-07T16:08:25.858Z,12.98
2022-11-07T16:11:01.223Z,12.88
2022-11-07T16:13:34.139Z,12.07
2022-11-07T16:16:03.402Z,12.95
2022-11-07T16:18:44.504Z,13.35
2022-11-07T16:21:11.845Z,12.05
2022-11-07T16:23:42.471Z,13.98
2022-11-07T16:26:14.287Z,12.68
2022-11-07T16:28:42.567Z,13.57
2022-11-07T16:31:09.687Z,13.43
2022-11-07T16:33:36.820Z,12.57
2022-11-07T16:36:21.082Z,13.30
2022-11-07T16:38:53.244Z,12.05
2022-11-07T16:41:25.769Z,11.50
2022-11-07T16:43:53.351Z,12.43
2022-11-07T16:46:53.929Z,13.20
2022-11-07T16:49:35.543Z,13.20
2022-11-07T16:52:10.210Z,12.75
2022-11-07T16:54:55.956Z,13.55
2022-11-07T16:57:31.073Z,13.98
2022-11-07T17:00:04.754Z,12.85
2022-11-07T17:02:44.324Z,13.85
2022-11-07T17:05:21.003Z,14.00
2022-11-07T17:07:57.645Z,17.92
2022-11-07T17:10:27.683Z,15.43
2022-11-07T17:13:00.584Z,13.82
2022-11-07T17:15:30.271Z,12.52
2022-11-07T17:18:00.587Z,13.55
2022-11-07T17:20:50.290Z,12.50
2022-11-07T17:23:18.290Z,13.27
2022-11-07T17:25:50.183Z,12.65
2022-11-07T17:28:17.721Z,11.57
2022-11-07T17:30:47.429Z,12.20
2022-11-07T17:33:14.783Z,11.48
2022-11-07T17:35:42.109Z,11.07
2022-11-07T17:38:17.272Z,12.05
2022-11-07T17:40:44.785Z,11.45
2022-11-07T17:43:12.054Z,10.35
2022-11-07T17:45:40.564Z,11.02
2022-11-07T17:48:10.034Z,11.13
2022-11-07T17:50:37.438Z,11.93
2022-11-07T17:53:15.138Z,11.82
2022-11-07T17:55:46.326Z,12.27
2022-11-07T17:58:16.248Z,12.93
2022-11-07T18:00:43.585Z,11.88
2022-11-07T18:03:10.793Z,11.80
2022-11-07T18:05:38.292Z,11.25
2022-11-07T18:08:07.113Z,13.50
2022-11-07T18:10:34.563Z,11.52
2022-11-07T18:13:01.683Z,10.90
2022-11-07T18:15:28.839Z,10.48
2022-11-07T18:17:55.923Z,11.20
2022-11-07T18:20:23.260Z,10.38
2022-11-07T18:22:50.294Z,11.50
2022-11-07T18:25:17.457Z,12.10
2022-11-07T18:27:44.637Z,9.77
2022-11-07T18:30:12.285Z,10.48
2022-11-07T18:32:39.455Z,10.55
2022-11-07T18:35:06.768Z,11.05
2022-11-07T18:37:34.277Z,10.90
2022-11-07T18:40:01.530Z,10.85
2022-11-07T18:42:33.685Z,11.40
2022-11-07T18:45:00.775Z,11.25
2022-11-07T18:47:30.304Z,11.48
2022-11-07T18:49:57.669Z,13.73
2022-11-07T18:52:24.993Z,10.23
2022-11-07T18:54:52.083Z,10.98
2022-11-07T18:57:19.443Z,11.50
2022-11-07T18:59:46.729Z,11.65
2022-11-07T19:02:14.409Z,11.10
2022-11-07T19:04:44.068Z,10.60
2022-11-07T19:07:11.205Z,12.20
2022-11-07T19:09:38.561Z,11.02
2022-11-07T19:12:05.852Z,11.55
2022-11-07T19:14:33.060Z,10.05
2022-11-07T19:17:00.316Z,11.25
2022-11-07T19:19:27.481Z,11.50
2022-11-07T19:21:54.685Z,11.82
2022-11-07T19:24:21.731Z,14.00
2022-11-07T19:26:48.874Z,10.43
2022-11-07T19:29:16.843Z,11.15
2022-11-07T19:31:44.044Z,11.23
2022-11-07T19:34:11.146Z,12.15
2022-11-07T19:36:38.276Z,12.13
2022-11-07T19:39:05.476Z,12.38
2022-11-07T19:41:32.631Z,11.93
2022-11-07T19:44:01.915Z,11.18
2022-11-07T19:46:29.388Z,11.80
2022-11-07T19:48:56.805Z,13.00
2022-11-07T19:51:24.138Z,12.65
2022-11-07T19:53:55.989Z,12.00
2022-11-07T19:56:24.491Z,12.07
2022-11-07T19:58:51.857Z,11.70
2022-11-07T20:01:22.385Z,11.88
2022-11-07T20:03:52.076Z,12.13
2022-11-07T20:06:22.343Z,12.88
2022-11-07T20:08:49.960Z,11.43
2022-11-07T20:11:21.647Z,13.95
2022-11-07T20:13:48.937Z,11.82
2022-11-07T20:16:16.363Z,11.63
2022-11-07T20:18:43.657Z,10.85
2022-11-07T20:21:30.999Z,12.13
2022-11-07T20:23:59.616Z,11.02
2022-11-07T20:26:29.558Z,12.20
2022-11-07T20:28:57.269Z,12.32
2022-11-07T20:31:33.034Z,12.25
2022-11-07T20:34:02.571Z,11.98
2022-11-07T20:36:31.500Z,12.45
2022-11-07T20:39:02.182Z,11.52
2022-11-07T20:41:29.231Z,11.48
2022-11-07T20:44:04.029Z,10.38
2022-11-07T20:46:32.760Z,12.13
2022-11-07T20:49:04.922Z,11.73
2022-11-07T20:51:32.117Z,11.47
2022-11-07T20:53:59.326Z,12.05
2022-11-07T20:56:28.187Z,12.00
2022-11-07T20:58:56.787Z,12.25
2022-11-07T21:01:27.580Z,11.27
2022-11-07T21:03:55.258Z,12.18
2022-11-07T21:06:22.386Z,12.68
2022-11-07T21:08:50.591Z,11.15
2022-11-07T21:11:18.046Z,11.20
2022-11-07T21:13:52.390Z,10.82
2022-11-07T21:16:21.955Z,12.57
2022-11-07T21:18:50.540Z,11.63
2022-11-07T21:21:21.300Z,12.07
2022-11-07T21:23:50.521Z,11.35
2022-11-07T21:26:26.733Z,13.00
2022-11-07T21:28:54.850Z,12.77
2022-11-07T21:31:25.105Z,12.80
2022-11-07T21:33:52.353Z,12.73
2022-11-07T21:36:22.230Z,13.00
2022-11-07T21:38:49.470Z,12.88
2022-11-07T21:41:17.351Z,13.95
2022-11-07T21:43:44.687Z,13.60
2022-11-07T21:46:13.358Z,12.43
2022-11-07T21:48:41.400Z,12.93
2022-11-07T21:51:33.181Z,12.63
2022-11-07T21:54:00.827Z,11.30
2022-11-07T21:56:30.467Z,12.38
2022-11-07T21:59:00.161Z,12.75
2022-11-07T22:01:28.902Z,13.18
2022-11-07T22:04:06.710Z,13.55
2022-11-07T22:06:36.651Z,12.55
2022-11-07T22:09:05.173Z,13.90
2022-11-07T22:11:32.311Z,12.30
2022-11-07T22:13:59.524Z,13.25
2022-11-07T22:16:26.844Z,13.20
2022-11-07T22:18:54.002Z,12.43
2022-11-07T22:21:23.461Z,14.75
2022-11-07T22:23:51.111Z,14.80
2022-11-07T22:26:20.818Z,14.85
2022-11-07T22:28:49.583Z,14.23
2022-11-07T22:31:20.980Z,14.95
2022-11-07T22:33:48.113Z,14.27
2022-11-07T22:36:15.568Z,13.98
2022-11-07T22:38:43.398Z,14.35
2022-11-07T22:41:14.294Z,14.10
2022-11-07T22:43:41.689Z,15.23
2022-11-07T22:46:12.607Z,13.98
2022-11-07T22:48:40.842Z,15.02
2022-11-07T22:51:13.263Z,14.55
2022-11-07T22:53:41.064Z,14.85
2022-11-07T22:56:19.425Z,15.52
2022-11-07T22:58:47.799Z,16.10
2022-11-07T23:01:21.181Z,14.25
2022-11-07T23:03:49.487Z,14.15
2022-11-07T23:06:18.115Z,14.32
2022-11-07T23:08:46.063Z,14.85
2022-11-07T23:14:11.857Z,13.10
2022-11-07T23:16:44.453Z,14.18
2022-11-07T23:19:14.374Z,15.23
2022-11-07T23:21:42.251Z,14.15
2022-11-07T23:24:10.155Z,14.70
2022-11-07T23:26:37.262Z,14.80
2022-11-07T23:29:11.095Z,13.90
2022-11-07T23:31:43.616Z,14.68
2022-11-07T23:34:11.416Z,16.02
2022-11-07T23:36:40.929Z,14.20
2022-11-07T23:39:10.627Z,14.63
2022-11-07T23:41:37.768Z,15.20
2022-11-07T23:44:04.975Z,13.98
2022-11-07T23:46:50.648Z,14.77
2022-11-07T23:49:36.237Z,14.85
2022-11-07T23:52:04.020Z,14.40
2022-11-07T23:54:49.690Z,14.30
2022-11-07T23:57:16.823Z,13.73
